Share

Saint Barthelemy Island, St. Barthelemy

5:04 AM AST on April 25, 2014 (GMT -0400)
ISTBARTH2 Elev 633 ft | 17.90 °N, 62.81 °W | Change Station

Current weather conditions updated 1 minute ago

Partly Cloudy
Partly Cloudy
75.0 °F
Feels Like 73 °F
N
0.0
Wind Variable Wind from ESE
Gusts 2.9 mph
Sunrise 5:48 AM
Sunset 6:30 PM
Moon Waning Crescent

Today is forecast to be Much Cooler than yesterday.

Pressure 29.98 in
Visibility 6.2 miles
Clouds Few 1800 ft
Heat Index 73 °F
Dew Point 75 °F
Humidity 96%
Rainfall 0.00 in
Snow Depth Not available.
UV 0.0 out of 16
Pollen Not available.
Air Quality Not available.
Flu Activity Not available.
METAR TNCM 250900Z 12007KT 9999 FEW018 26/22 Q1015 A2997

More Conditions Fewer Conditions

Pressure 29.98 in
Visibility 6.2 miles
Clouds Few 1800 ft
Heat Index 73 °F
Dew Point 75 °F
Humidity 96%
Rainfall 0.00 in
Snow Depth Not available.
UV 0.0 out of 16
Pollen Not available.
Air Quality Not available.
Flu Activity Not available.
METAR TNCM 250900Z 12007KT 9999 FEW018 26/22 Q1015 A2997

More Conditions Fewer Conditions

10-Day Weather Forecast

Almanac

Astronomy

Apr. 25, 2014 Rise Set
Actual Time 5:48 AM AST 6:30 PM AST
Civil Twilight 5:25 AM AST 6:53 PM AST
Nautical Twilight 4:59 AM AST 7:19 PM AST
Astronomical Twilight 4:32 AM AST 7:46 PM AST
Moon 2:58 AM AST 3:18 PM AST
Length of Visible Light 13h 27m
Length of Day
12h 42m
Tomorrow will be 0m 54s longer.
Waning Crescent, 18% of the Moon is Illuminated
Today
Waning Crescent
Apr 29
New
May 6
First Quarter
May 14
Full
May 21
Last Quarter

Community

  • Storm Clouds & Sunset
    Storm Clouds & Sunset
  • Deer in evening light
    Deer in evening light
  • Critter
    Critter
  • Jone Runs Falls
    Jone Runs Falls
  • Easter in Shenandoah National Park
    Easter in Shenandoah National Park

WunderPhotos

Upload Photos

1,704,874 photos uploaded!

WunderBlogs® & News

Nearby

Snow Depth

Not available.

Coastal Water Temperatures

Place Temperature
No Stations Reporting

Earthquake Activity

City Distance Mag. Time & Date
No recent earthquake activity has been reported nearby.
Minimum magnitude displayed is 2.5.

Nearby Weather Stations

Station Location Temp. Heat Index Dew Point Humidity Wind Precip. Elev Updated Type
St Barthelemy 75.0 °F 73 °F 75 °F 96% ESE  at  0.0 mph 0.00 in / hr 633 ft 5:03 AM AST Normal

Show More Stations Show Fewer Stations

What do you think?

We're not finished. Please let us know what you like, what you don't like, and what you are still missing.